Time;durP1;ratioP1;P1;durP2;ratioP2;P2;SDS_P1;SDS_P2;PMS_P1;PMS_P2;Temp;Humidity;BMP_temperature;BMP_pressure;BME280_temperature;BME280_humidity;BME280_pressure;Samples;Min_cycle;Max_cycle;Signal;HPM_P1;HPM_P2
2021/12/12 00:02:49;;;;;;;9.82;4.13;;;7.80;97.80;;;;;;5037481;28;20013;-49
2021/12/12 00:05:16;;;;;;;;;;;7.80;97.80;;;;;;5036470;28;20328;-51
2021/12/12 00:07:42;;;;;;;5.88;3.63;;;7.80;97.70;;;;;;5043070;28;19912;-49
2021/12/12 00:10:21;;;;;;;12.93;4.38;;;7.80;97.70;;;;;;5035246;28;20616;-50
2021/12/12 00:12:51;;;;;;;6.38;3.20;;;7.80;97.70;;;;;;5036408;28;20429;-49
2021/12/12 00:15:19;;;;;;;6.72;3.33;;;7.80;97.70;;;;;;5041554;28;20025;-50
2021/12/12 00:17:46;;;;;;;6.10;3.92;;;7.80;97.70;;;;;;5041602;28;20036;-49
2021/12/12 00:20:15;;;;;;;8.60;4.18;;;7.80;97.80;;;;;;5040953;28;20029;-49
2021/12/12 00:22:41;;;;;;;7.45;4.43;;;7.80;97.80;;;;;;5043820;28;20400;-49
2021/12/12 00:25:09;;;;;;;5.18;3.28;;;7.80;97.60;;;;;;5027916;28;20037;-49
2021/12/12 00:27:35;;;;;;;8.95;4.05;;;7.70;97.70;;;;;;5042788;28;20457;-49
2021/12/12 00:30:03;;;;;;;8.02;3.90;;;7.80;97.60;;;;;;5041480;28;20042;-50
2021/12/12 00:32:34;;;;;;;7.82;3.78;;;7.80;97.80;;;;;;5040695;28;20044;-49
2021/12/12 00:35:03;;;;;;;7.47;3.72;;;7.80;97.70;;;;;;5042808;28;20453;-50
2021/12/12 00:37:30;;;;;;;8.25;4.03;;;7.80;97.70;;;;;;5036508;28;20025;-50
2021/12/12 00:40:00;;;;;;;6.95;3.88;;;7.80;97.80;;;;;;5034148;28;20051;-49
2021/12/12 00:42:29;;;;;;;8.93;4.00;;;7.80;97.70;;;;;;5041927;28;20056;-50
2021/12/12 00:44:57;;;;;;;9.23;4.35;;;7.80;97.70;;;;;;5041542;28;20296;-49
2021/12/12 00:47:23;;;;;;;7.75;4.15;;;7.80;97.70;;;;;;5039363;28;20029;-50
2021/12/12 00:49:49;;;;;;;11.35;4.07;;;7.80;97.70;;;;;;5039316;28;20347;-50
2021/12/12 00:52:17;;;;;;;7.75;4.18;;;7.80;97.70;;;;;;5040309;28;20454;-50
2021/12/12 00:54:44;;;;;;;8.55;3.95;;;7.80;97.70;;;;;;5034168;28;20037;-50
2021/12/12 00:57:14;;;;;;;6.47;3.38;;;7.80;97.70;;;;;;5040102;28;20060;-49
2021/12/12 00:59:40;;;;;;;6.20;4.18;;;7.70;97.60;;;;;;5042497;28;20029;-49
2021/12/12 01:02:17;;;;;;;6.25;3.58;;;7.70;97.60;;;;;;5038408;28;20047;-50
2021/12/12 01:04:46;;;;;;;5.68;3.35;;;7.70;97.60;;;;;;5040873;28;20469;-49
2021/12/12 01:07:18;;;;;;;5.15;3.10;;;7.70;97.70;;;;;;5040782;28;20454;-49
2021/12/12 01:09:55;;;;;;;5.57;3.17;;;7.70;97.80;;;;;;5026325;28;20068;-49
2021/12/12 01:12:26;;;;;;;5.82;3.22;;;7.70;97.80;;;;;;5040761;28;20024;-49
2021/12/12 01:15:04;;;;;;;10.68;4.05;;;7.70;97.80;;;;;;5042718;28;20075;-49
2021/12/12 01:17:41;;;;;;;10.68;3.47;;;7.70;97.60;;;;;;5038118;28;20025;-49
2021/12/12 01:20:14;;;;;;;7.28;3.88;;;7.70;97.70;;;;;;5038894;28;20052;-49
2021/12/12 01:22:40;;;;;;;9.82;4.05;;;7.70;97.70;;;;;;5037639;28;20033;-49
2021/12/12 01:25:17;;;;;;;7.00;3.50;;;7.70;97.60;;;;;;5036732;28;20017;-49
2021/12/12 01:27:43;;;;;;;8.35;3.45;;;7.70;97.80;;;;;;5042953;28;20025;-50
2021/12/12 01:30:11;;;;;;;7.30;3.22;;;7.70;97.70;;;;;;5038918;28;20406;-49
2021/12/12 01:32:37;;;;;;;9.80;3.35;;;7.70;97.70;;;;;;5041289;28;20055;-49
2021/12/12 01:35:13;;;;;;;8.38;3.97;;;7.70;97.70;;;;;;5039936;28;20117;-49
2021/12/12 01:37:43;;;;;;;4.63;2.80;;;7.70;97.60;;;;;;5038869;28;20543;-50
2021/12/12 01:40:20;;;;;;;7.78;3.50;;;7.70;97.60;;;;;;5032729;28;20060;-50
2021/12/12 01:42:48;;;;;;;7.97;3.33;;;7.70;97.60;;;;;;5039698;28;20053;-50
2021/12/12 01:45:31;;;;;;;5.10;3.20;;;7.70;97.70;;;;;;5041059;28;20107;-49
2021/12/12 01:48:04;;;;;;;11.60;3.30;;;7.70;97.70;;;;;;5039551;28;20025;-49
2021/12/12 01:50:43;;;;;;;6.85;2.78;;;7.60;97.60;;;;;;5037144;28;20043;-49
2021/12/12 01:53:12;;;;;;;12.02;3.88;;;7.60;97.60;;;;;;5040802;28;20026;-49
2021/12/12 01:55:40;;;;;;;7.93;3.45;;;7.60;97.60;;;;;;5033089;28;20039;-49
2021/12/12 01:58:09;;;;;;;6.38;2.83;;;7.60;97.60;;;;;;5042158;28;20462;-49
2021/12/12 02:00:52;;;;;;;5.45;3.35;;;7.60;97.60;;;;;;5039274;28;20021;-49
2021/12/12 02:03:22;;;;;;;5.78;3.17;;;7.60;97.60;;;;;;5038558;28;20036;-50
2021/12/12 02:05:49;;;;;;;7.05;3.60;;;7.60;97.60;;;;;;5040451;28;20071;-50
2021/12/12 02:08:18;;;;;;;6.20;3.22;;;7.60;97.60;;;;;;5039346;28;20112;-49
2021/12/12 02:10:53;;;;;;;6.25;2.88;;;7.60;97.30;;;;;;5034226;28;20041;-49
2021/12/12 02:13:23;;;;;;;6.88;2.80;;;7.60;98.00;;;;;;5035562;28;20030;-50
2021/12/12 02:15:52;;;;;;;6.05;3.67;;;7.60;97.50;;;;;;5040545;28;20043;-49
2021/12/12 02:18:26;;;;;;;9.85;2.72;;;7.60;97.60;;;;;;5037750;28;20061;-49
2021/12/12 02:21:07;;;;;;;6.10;2.65;;;7.60;97.40;;;;;;5045213;28;20037;-50
2021/12/12 02:23:53;;;;;;;4.68;2.38;;;7.60;97.60;;;;;;5043781;28;20403;-49
2021/12/12 02:37:20;;;;;;;5.95;2.70;;;7.60;97.50;;;;;;5041118;28;20622;-50
2021/12/12 02:39:45;;;;;;;4.03;2.10;;;7.60;97.50;;;;;;5038262;28;20427;-49
2021/12/12 02:42:14;;;;;;;8.68;2.58;;;7.60;97.60;;;;;;5042597;28;20443;-49
2021/12/12 02:44:42;;;;;;;7.38;2.72;;;7.60;97.50;;;;;;5036746;28;20013;-49
2021/12/12 02:47:14;;;;;;;2.97;2.53;;;7.60;97.60;;;;;;5041295;28;20033;-50
2021/12/12 02:52:22;;;;;;;4.57;2.35;;;7.50;97.60;;;;;;5029254;28;20409;-49
2021/12/12 02:54:47;;;;;;;4.25;2.40;;;7.60;97.60;;;;;;5039564;28;20033;-50
2021/12/12 02:57:15;;;;;;;3.92;2.33;;;7.50;97.50;;;;;;5027891;28;20090;-50
2021/12/12 02:59:43;;;;;;;5.30;2.58;;;7.60;97.50;;;;;;5031145;28;20052;-50
2021/12/12 03:02:16;;;;;;;5.03;2.70;;;7.60;97.60;;;;;;5038713;28;20033;-49
2021/12/12 03:04:43;;;;;;;4.80;2.72;;;7.50;97.40;;;;;;5029492;28;20037;-49
2021/12/12 03:07:10;;;;;;;2.88;1.83;;;7.60;97.60;;;;;;5029591;28;20025;-49
2021/12/12 03:09:41;;;;;;;11.35;3.13;;;7.60;97.60;;;;;;5030666;28;20410;-49
2021/12/12 03:12:11;;;;;;;6.53;2.75;;;7.60;97.50;;;;;;5030451;28;20429;-50
2021/12/12 03:14:37;;;;;;;;;;;7.60;97.50;;;;;;5030034;28;20029;-49
2021/12/12 03:17:10;;;;;;;4.05;2.13;;;7.50;97.30;;;;;;5028816;28;19912;-50
2021/12/12 03:19:36;;;;;;;5.35;2.35;;;7.50;97.50;;;;;;5023509;28;20529;-50
2021/12/12 03:22:05;;;;;;;3.35;2.38;;;7.50;97.60;;;;;;5030324;28;20030;-49
2021/12/12 03:24:31;;;;;;;5.07;2.45;;;7.60;97.60;;;;;;5030288;28;20022;-50
2021/12/12 03:26:59;;;;;;;6.78;2.30;;;7.50;97.40;;;;;;5028455;28;20366;-49
2021/12/12 03:29:27;;;;;;;7.57;2.42;;;7.50;97.40;;;;;;5029220;28;20365;-49
2021/12/12 03:31:57;;;;;;;4.88;2.60;;;7.50;97.50;;;;;;5029595;28;20044;-49
2021/12/12 03:34:26;;;;;;;3.70;2.30;;;7.50;97.50;;;;;;5030495;28;20024;-49
2021/12/12 03:36:53;;;;;;;4.03;2.72;;;7.60;97.60;;;;;;5029411;28;20340;-50
2021/12/12 03:39:29;;;;;;;2.20;1.95;;;7.50;97.60;;;;;;5029816;28;20021;-49
2021/12/12 03:41:57;;;;;;;3.70;2.00;;;7.60;97.50;;;;;;5027200;28;20017;-49
2021/12/12 03:44:25;;;;;;;3.65;2.30;;;7.50;97.50;;;;;;5029558;28;20029;-49
2021/12/12 03:46:56;;;;;;;3.40;2.10;;;7.60;97.60;;;;;;5028879;28;20359;-49
2021/12/12 03:49:23;;;;;;;5.30;2.03;;;7.60;97.40;;;;;;5030569;28;20099;-49
2021/12/12 03:51:50;;;;;;;6.05;2.90;;;7.50;97.30;;;;;;5027178;28;20566;-49
2021/12/12 03:54:17;;;;;;;4.10;2.20;;;7.60;97.50;;;;;;5027227;28;20374;-49
2021/12/12 03:56:45;;;;;;;8.57;2.63;;;7.60;97.40;;;;;;5026331;28;20091;-49
2021/12/12 03:59:12;;;;;;;4.78;2.17;;;7.60;97.60;;;;;;5030066;28;20021;-49
2021/12/12 04:01:41;;;;;;;3.75;2.50;;;7.60;97.50;;;;;;5029297;28;20111;-50
2021/12/12 04:04:15;;;;;;;3.05;2.30;;;7.60;97.60;;;;;;5026676;28;20451;-49
2021/12/12 04:06:41;;;;;;;5.60;2.33;;;7.60;97.50;;;;;;5028114;28;20052;-49
2021/12/12 04:09:10;;;;;;;3.45;2.60;;;7.60;97.50;;;;;;5029009;28;20025;-49
2021/12/12 04:11:39;;;;;;;5.38;2.30;;;7.60;97.60;;;;;;5031325;28;20064;-49
2021/12/12 04:14:07;;;;;;;3.97;2.13;;;7.60;97.40;;;;;;5027387;28;20021;-50
2021/12/12 04:16:35;;;;;;;4.63;1.95;;;7.60;97.60;;;;;;5030549;28;20056;-49
2021/12/12 04:19:03;;;;;;;5.95;2.63;;;7.60;97.50;;;;;;5029964;28;20029;-49
2021/12/12 04:21:30;;;;;;;2.33;1.80;;;7.60;97.50;;;;;;5029131;28;20041;-50
2021/12/12 04:23:56;;;;;;;5.28;1.92;;;7.60;97.50;;;;;;5029475;28;20029;-50
2021/12/12 04:26:31;;;;;;;4.32;2.33;;;7.60;97.50;;;;;;5027621;28;20030;-49
2021/12/12 04:29:11;;;;;;;3.15;1.80;;;7.60;97.80;;;;;;5031039;28;20038;-49
2021/12/12 04:31:40;;;;;;;1.90;1.27;;;7.60;97.40;;;;;;5029484;28;20084;-49
2021/12/12 04:34:07;;;;;;;3.10;2.00;;;7.60;97.60;;;;;;5028951;28;20018;-49
2021/12/12 04:36:43;;;;;;;2.88;1.83;;;7.60;97.40;;;;;;5030552;28;20502;-49
2021/12/12 04:39:18;;;;;;;3.30;2.20;;;7.60;97.50;;;;;;5028892;28;20026;-49
2021/12/12 04:41:47;;;;;;;2.45;1.80;;;7.60;97.50;;;;;;5025809;28;20032;-49
2021/12/12 04:44:18;;;;;;;4.22;2.28;;;7.60;97.40;;;;;;5028497;28;20245;-49
2021/12/12 04:52:28;;;;;;;2.20;1.80;;;7.60;97.60;;;;;;5028484;28;20060;-49
2021/12/12 04:55:01;;;;;;;5.72;2.15;;;7.70;97.80;;;;;;5037384;28;20029;-49
2021/12/12 04:57:34;;;;;;;4.80;2.08;;;7.60;97.50;;;;;;5037081;28;20018;-49
2021/12/12 05:00:09;;;;;;;1.83;1.58;;;7.60;97.50;;;;;;5041552;28;20041;-50
2021/12/12 05:02:58;;;;;;;1.95;1.80;;;7.60;97.50;;;;;;5038946;28;20037;-49
2021/12/12 05:05:29;;;;;;;4.95;1.77;;;7.60;97.40;;;;;;5039156;28;20450;-50
2021/12/12 05:08:08;;;;;;;4.78;1.73;;;7.60;97.40;;;;;;5038369;28;20096;-49
2021/12/12 05:10:50;;;;;;;4.38;3.25;;;7.60;97.50;;;;;;5039618;28;20486;-49
2021/12/12 05:13:21;;;;;;;4.20;2.25;;;7.60;97.40;;;;;;5036275;28;20036;-49
2021/12/12 05:15:59;;;;;;;3.72;1.83;;;7.60;97.40;;;;;;5039354;28;20029;-49
2021/12/12 05:18:33;;;;;;;2.45;2.15;;;7.60;97.40;;;;;;5034865;28;20052;-49
2021/12/12 05:21:10;;;;;;;2.55;1.77;;;7.60;97.40;;;;;;5039659;28;20017;-49
2021/12/12 05:23:43;;;;;;;3.33;2.25;;;7.60;97.40;;;;;;5034069;28;20036;-49
2021/12/12 05:26:35;;;;;;;4.13;1.95;;;7.60;97.40;;;;;;5036713;28;20038;-49
2021/12/12 05:29:03;;;;;;;2.08;1.85;;;7.60;97.40;;;;;;5036772;28;20041;-49
2021/12/12 05:31:30;;;;;;;3.08;2.03;;;7.60;97.30;;;;;;5039110;28;20351;-50
2021/12/12 05:33:57;;;;;;;1.85;1.63;;;7.60;97.30;;;;;;5041105;28;20565;-50
2021/12/12 05:36:24;;;;;;;3.72;2.03;;;7.60;97.50;;;;;;5037069;28;20038;-50
2021/12/12 05:38:50;;;;;;;4.78;2.05;;;7.60;97.30;;;;;;5041054;28;20063;-50
2021/12/12 05:41:18;;;;;;;2.75;2.10;;;7.70;97.50;;;;;;5035774;28;20040;-49
2021/12/12 05:43:48;;;;;;;2.80;1.75;;;7.70;97.40;;;;;;5039815;28;20473;-50
2021/12/12 05:46:18;;;;;;;2.72;1.52;;;7.70;97.50;;;;;;5037862;28;20037;-50
2021/12/12 05:48:45;;;;;;;3.97;1.90;;;7.60;97.30;;;;;;5040603;28;20037;-49
2021/12/12 05:51:11;;;;;;;1.88;1.65;;;7.70;97.40;;;;;;5039688;28;20025;-50
2021/12/12 05:53:37;;;;;;;2.55;1.63;;;7.70;97.40;;;;;;5044588;28;20032;-49
2021/12/12 05:56:03;;;;;;;4.43;1.48;;;7.70;97.40;;;;;;5042417;28;20028;-50
2021/12/12 05:58:30;;;;;;;3.05;1.70;;;7.70;97.40;;;;;;5039370;28;20470;-49
2021/12/12 06:01:01;;;;;;;2.90;1.65;;;7.70;97.30;;;;;;5044230;28;20029;-49
2021/12/12 06:03:33;;;;;;;2.72;1.80;;;7.70;97.30;;;;;;5042013;28;20037;-49
2021/12/12 06:06:02;;;;;;;1.75;1.48;;;7.70;97.40;;;;;;5043268;28;20067;-49
2021/12/12 06:08:29;;;;;;;4.00;1.98;;;7.70;97.40;;;;;;5043753;28;20287;-49
2021/12/12 06:10:56;;;;;;;2.95;1.70;;;7.70;97.30;;;;;;5042222;28;20037;-49
2021/12/12 06:13:23;;;;;;;3.47;1.70;;;7.60;97.40;;;;;;5038927;28;20151;-50
2021/12/12 06:15:51;;;;;;;2.92;1.95;;;7.70;97.30;;;;;;5037235;28;20033;-49
2021/12/12 06:18:19;;;;;;;4.68;2.10;;;7.70;97.30;;;;;;5044700;28;20202;-49
2021/12/12 06:20:45;;;;;;;6.00;2.15;;;7.70;97.30;;;;;;5043250;28;20064;-50
2021/12/12 06:23:13;;;;;;;2.95;1.85;;;7.70;97.30;;;;;;5042908;28;20060;-49
2021/12/12 06:25:39;;;;;;;2.60;1.77;;;7.70;97.30;;;;;;5044074;28;20031;-49
2021/12/12 06:28:11;;;;;;;3.55;1.60;;;7.60;97.20;;;;;;5034583;28;20037;-49
2021/12/12 06:30:37;;;;;;;1.77;1.58;;;7.70;97.30;;;;;;5044158;28;20040;-49
2021/12/12 06:33:04;;;;;;;2.28;1.85;;;7.70;97.30;;;;;;5043115;28;20032;-49
2021/12/12 06:35:30;;;;;;;7.28;2.30;;;7.70;97.30;;;;;;5042294;28;20029;-50
2021/12/12 06:38:01;;;;;;;3.67;2.05;;;7.70;97.30;;;;;;5043774;28;20029;-49
2021/12/12 06:40:28;;;;;;;3.03;1.70;;;7.60;97.20;;;;;;5039760;28;20113;-49
2021/12/12 06:42:54;;;;;;;3.85;1.88;;;7.60;97.60;;;;;;5036872;28;20443;-49
2021/12/12 06:45:22;;;;;;;5.28;2.00;;;7.60;97.20;;;;;;5041833;28;20026;-49
2021/12/12 06:47:48;;;;;;;3.42;1.80;;;7.60;97.10;;;;;;5044112;28;20043;-49
2021/12/12 06:50:14;;;;;;;3.63;2.13;;;7.60;97.10;;;;;;5040623;28;20439;-50
2021/12/12 06:52:40;;;;;;;3.30;1.80;;;7.60;97.10;;;;;;5041690;28;20454;-50
2021/12/12 06:55:08;;;;;;;3.45;2.10;;;7.60;97.20;;;;;;5042626;28;20025;-50
2021/12/12 06:57:35;;;;;;;2.88;1.85;;;7.60;97.30;;;;;;5023820;28;20049;-49
2021/12/12 07:00:01;;;;;;;2.03;1.83;;;7.60;97.20;;;;;;5043714;28;20054;-50
2021/12/12 07:02:28;;;;;;;3.78;1.88;;;7.60;97.10;;;;;;5042034;28;20454;-49
2021/12/12 07:04:53;;;;;;;5.65;2.17;;;7.60;97.20;;;;;;5042132;28;20033;-50
2021/12/12 07:07:19;;;;;;;3.25;2.13;;;7.60;97.20;;;;;;5042433;28;20371;-50
2021/12/12 07:09:47;;;;;;;3.00;1.80;;;7.60;97.10;;;;;;5041240;28;20037;-50
2021/12/12 07:12:15;;;;;;;3.92;2.38;;;7.60;97.20;;;;;;5035964;28;20025;-49
2021/12/12 07:14:42;;;;;;;6.13;2.10;;;7.60;97.20;;;;;;5031096;28;20036;-49
2021/12/12 07:17:08;;;;;;;4.45;1.98;;;7.60;97.10;;;;;;5030877;28;20033;-49
2021/12/12 07:19:37;;;;;;;3.53;2.10;;;7.60;97.10;;;;;;5041749;28;20029;-50
2021/12/12 07:22:04;;;;;;;2.53;1.38;;;7.60;97.20;;;;;;5042553;28;20032;-49
2021/12/12 07:24:31;;;;;;;4.60;2.47;;;7.60;97.20;;;;;;5040730;28;20519;-50
2021/12/12 07:26:58;;;;;;;3.50;1.80;;;7.60;97.20;;;;;;5040567;28;20066;-49
2021/12/12 07:29:24;;;;;;;1.88;1.50;;;7.60;97.10;;;;;;5037403;28;20029;-50
2021/12/12 07:31:51;;;;;;;3.75;2.30;;;7.60;97.10;;;;;;5042781;28;20052;-49
2021/12/12 07:34:17;;;;;;;4.72;2.45;;;7.60;97.20;;;;;;5041785;28;20026;-49
2021/12/12 07:36:51;;;;;;;3.42;2.45;;;7.60;97.20;;;;;;5035529;28;20391;-49
2021/12/12 07:39:19;;;;;;;4.40;2.53;;;7.60;97.10;;;;;;5033385;28;20467;-50
2021/12/12 07:41:47;;;;;;;3.45;1.90;;;7.60;97.10;;;;;;5042998;28;20087;-49
2021/12/12 07:44:15;;;;;;;6.97;2.63;;;7.60;97.10;;;;;;5038204;28;20103;-50
2021/12/12 07:46:43;;;;;;;6.35;2.22;;;7.60;97.20;;;;;;5040231;28;20021;-49
2021/12/12 07:49:08;;;;;;;3.88;2.30;;;7.60;97.20;;;;;;5039081;28;20037;-49
2021/12/12 07:51:36;;;;;;;6.25;3.38;;;7.60;97.10;;;;;;5038303;28;20041;-49
2021/12/12 07:54:04;;;;;;;2.90;2.45;;;7.60;97.20;;;;;;5037209;28;20029;-49
2021/12/12 07:56:31;;;;;;;5.15;3.03;;;7.60;97.20;;;;;;5027599;28;20029;-49
2021/12/12 07:58:58;;;;;;;3.70;1.88;;;7.60;97.10;;;;;;5034004;28;20464;-49
2021/12/12 08:01:25;;;;;;;7.43;2.97;;;7.60;97.10;;;;;;5033520;28;20459;-50
2021/12/12 08:03:56;;;;;;;5.35;3.13;;;7.60;97.10;;;;;;5043035;28;20025;-49
2021/12/12 08:06:22;;;;;;;7.30;3.25;;;7.60;97.10;;;;;;5035924;28;20030;-50
2021/12/12 08:08:48;;;;;;;3.80;2.17;;;7.60;97.10;;;;;;5043227;28;20028;-49
2021/12/12 08:11:17;;;;;;;4.78;2.28;;;7.60;97.20;;;;;;5036113;28;20132;-50
2021/12/12 08:13:43;;;;;;;5.97;2.13;;;7.60;97.10;;;;;;5037792;28;20051;-50
2021/12/12 08:16:09;;;;;;;7.05;2.63;;;7.60;97.10;;;;;;5028542;28;20030;-50
2021/12/12 08:18:38;;;;;;;8.80;3.70;;;7.70;97.10;;;;;;5029160;28;20033;-49
2021/12/12 08:21:05;;;;;;;3.50;2.13;;;7.60;96.90;;;;;;5027719;28;20041;-49
2021/12/12 08:23:32;;;;;;;8.07;2.17;;;7.60;97.00;;;;;;5028131;28;20159;-49
2021/12/12 08:25:58;;;;;;;4.05;2.30;;;7.70;97.10;;;;;;5028729;28;20021;-49
2021/12/12 08:28:24;;;;;;;5.70;3.10;;;7.70;97.10;;;;;;5034207;28;20034;-49
2021/12/12 08:30:51;;;;;;;4.97;2.30;;;7.70;97.00;;;;;;5027900;28;20065;-49
2021/12/12 08:33:17;;;;;;;3.75;2.17;;;7.70;97.00;;;;;;5032409;28;20021;-49
2021/12/12 08:35:43;;;;;;;3.28;2.05;;;7.70;96.90;;;;;;5043403;28;20186;-49
2021/12/12 08:38:11;;;;;;;6.82;3.53;;;7.70;97.00;;;;;;5036071;28;20033;-49
2021/12/12 08:40:43;;;;;;;5.97;2.88;;;7.70;96.60;;;;;;5043915;28;20099;-50
2021/12/12 08:43:13;;;;;;;5.90;3.25;;;7.70;97.30;;;;;;5034092;28;20025;-50
2021/12/12 08:45:43;;;;;;;7.13;2.92;;;7.70;97.20;;;;;;5043096;28;20032;-49
2021/12/12 08:48:10;;;;;;;6.70;2.20;;;7.80;97.00;;;;;;5039847;28;20045;-49
2021/12/12 08:50:38;;;;;;;4.22;2.30;;;7.80;97.10;;;;;;5040252;28;20033;-49
2021/12/12 08:53:05;;;;;;;6.55;2.85;;;7.80;97.00;;;;;;5036111;28;20070;-49
2021/12/12 08:55:36;;;;;;;2.30;1.48;;;7.80;97.10;;;;;;5042750;28;20040;-49
2021/12/12 08:58:15;;;;;;;4.43;2.83;;;7.80;97.20;;;;;;5034779;28;20121;-49
2021/12/12 09:01:10;;;;;;;0.40;0.40;;;7.80;97.40;;;;;;5041852;28;20030;-50
2021/12/12 09:03:42;;;;;;;4.45;2.60;;;7.90;97.60;;;;;;5036933;28;20136;-50
2021/12/12 09:06:12;;;;;;;4.70;2.38;;;7.90;97.60;;;;;;5041485;28;20036;-49
2021/12/12 09:08:58;;;;;;;6.28;4.15;;;7.90;97.60;;;;;;5042451;28;20333;-49
2021/12/12 09:11:49;;;;;;;4.82;2.90;;;7.90;97.70;;;;;;5034988;28;20431;-49
2021/12/12 09:14:18;;;;;;;3.38;1.95;;;7.90;98.30;;;;;;5024288;28;20443;-51
2021/12/12 09:17:03;;;;;;;5.80;3.13;;;8.00;98.40;;;;;;5041631;28;20505;-49
2021/12/12 09:19:37;;;;;;;4.38;2.63;;;8.00;98.20;;;;;;5044181;28;20112;-49
2021/12/12 09:22:16;;;;;;;7.28;3.80;;;8.10;98.50;;;;;;5034991;28;20082;-49
2021/12/12 09:25:14;;;;;;;6.50;3.17;;;8.00;98.50;;;;;;5037970;28;20397;-50
2021/12/12 09:27:44;;;;;;;4.00;2.40;;;8.10;98.50;;;;;;5042718;28;20112;-49
2021/12/12 09:30:19;;;;;;;7.28;3.17;;;8.10;98.40;;;;;;5029774;28;20049;-49
2021/12/12 09:33:04;;;;;;;9.50;2.97;;;8.10;98.40;;;;;;5034469;28;20057;-49
2021/12/12 09:35:46;;;;;;;3.90;3.00;;;8.10;98.50;;;;;;5041843;28;20035;-49
2021/12/12 09:38:30;;;;;;;7.82;3.78;;;8.20;98.40;;;;;;5040371;28;20039;-49
2021/12/12 09:41:14;;;;;;;4.05;2.22;;;8.10;98.40;;;;;;5037286;28;20026;-49
2021/12/12 09:44:16;;;;;;;4.30;2.40;;;8.20;98.60;;;;;;5023663;28;20029;-50
2021/12/12 09:46:57;;;;;;;4.35;2.63;;;8.20;98.30;;;;;;5030869;28;20017;-50
2021/12/12 09:52:55;;;;;;;1.48;1.33;;;8.20;98.70;;;;;;5032973;28;20067;-49
2021/12/12 09:55:33;;;;;;;3.80;2.00;;;8.20;98.70;;;;;;5033344;28;20038;-49
2021/12/12 09:58:03;;;;;;;1.90;1.70;;;8.20;98.60;;;;;;5032288;28;20127;-50
2021/12/12 10:00:40;;;;;;;4.38;2.35;;;8.10;98.70;;;;;;5031949;28;20029;-49
2021/12/12 10:03:54;;;;;;;1.85;0.98;;;8.20;99.00;;;;;;5031507;28;20104;-50
2021/12/12 10:06:33;;;;;;;2.72;1.70;;;8.30;98.90;;;;;;5023974;28;20036;-49
2021/12/12 10:09:07;;;;;;;1.60;1.48;;;8.30;98.70;;;;;;5031776;28;20446;-50
2021/12/12 10:11:40;;;;;;;4.43;2.45;;;8.30;98.70;;;;;;5036418;28;20651;-49
2021/12/12 10:14:28;;;;;;;2.28;1.55;;;8.30;98.80;;;;;;5028465;28;20029;-49
2021/12/12 10:17:22;;;;;;;3.38;2.10;;;8.30;99.10;;;;;;5036929;28;20104;-49
2021/12/12 10:20:00;;;;;;;3.33;1.52;;;8.30;99.00;;;;;;5020049;28;20033;-50
2021/12/12 10:22:37;;;;;;;3.05;1.65;;;8.30;98.80;;;;;;5032054;28;20025;-49
2021/12/12 10:25:12;;;;;;;5.20;2.40;;;8.30;98.90;;;;;;5027881;28;20443;-49
2021/12/12 10:27:57;;;;;;;8.02;2.40;;;8.30;98.80;;;;;;5030650;28;20080;-49
2021/12/12 10:30:27;;;;;;;3.42;1.98;;;8.30;98.80;;;;;;5026207;28;20030;-49
2021/12/12 10:33:15;;;;;;;3.25;1.58;;;8.30;98.70;;;;;;5027875;28;20522;-49
2021/12/12 10:35:58;;;;;;;3.17;2.22;;;8.30;98.70;;;;;;5045540;28;20358;-50
2021/12/12 10:38:57;;;;;;;4.43;2.08;;;8.30;98.80;;;;;;5032261;28;20030;-49
2021/12/12 10:41:35;;;;;;;4.38;1.90;;;8.30;98.70;;;;;;5041693;28;20358;-49
2021/12/12 10:44:09;;;;;;;2.65;2.03;;;8.30;98.60;;;;;;5040184;28;20077;-49
2021/12/12 10:46:43;;;;;;;4.47;2.58;;;8.30;98.60;;;;;;5042857;28;20116;-50
2021/12/12 10:49:36;;;;;;;1.63;1.50;;;8.30;98.60;;;;;;5038075;28;20103;-50
2021/12/12 10:52:02;;;;;;;5.70;2.97;;;8.40;98.40;;;;;;5042052;28;20032;-49
2021/12/12 10:54:51;;;;;;;4.00;2.75;;;8.40;98.50;;;;;;5029036;28;20014;-50
2021/12/12 10:57:28;;;;;;;6.55;2.83;;;8.40;99.10;;;;;;5025980;28;20029;-49
2021/12/12 11:00:10;;;;;;;4.10;2.63;;;8.40;98.60;;;;;;5030485;28;20498;-49
2021/12/12 11:02:44;;;;;;;3.50;2.33;;;8.40;99.00;;;;;;5042453;28;20048;-49
2021/12/12 11:05:14;;;;;;;8.10;3.05;;;8.30;98.80;;;;;;5031603;28;20013;-51
2021/12/12 11:07:44;;;;;;;5.65;3.42;;;8.40;98.50;;;;;;5037307;28;20044;-51
2021/12/12 11:10:13;;;;;;;5.50;2.58;;;8.40;97.70;;;;;;5041966;28;20044;-51
2021/12/12 11:12:55;;;;;;;6.00;3.00;;;8.40;96.20;;;;;;5047843;28;20356;-51
2021/12/12 11:15:27;;;;;;;4.20;2.30;;;8.40;94.50;;;;;;5027400;28;20169;-50
2021/12/12 11:18:01;;;;;;;4.80;3.05;;;8.30;93.90;;;;;;5041845;28;20055;-51
2021/12/12 11:21:03;;;;;;;6.28;3.10;;;8.30;93.70;;;;;;5036816;28;20028;-50
2021/12/12 11:23:43;;;;;;;6.57;3.10;;;8.30;93.80;;;;;;4995799;28;20046;-51
2021/12/12 11:26:11;;;;;;;;;;;8.30;93.50;;;;;;4990027;28;20434;-51
2021/12/12 11:28:47;;;;;;;7.70;3.20;;;8.20;92.60;;;;;;4990199;28;19926;-51
2021/12/12 11:31:43;;;;;;;4.55;2.85;;;8.20;91.90;;;;;;4989218;28;20081;-51
2021/12/12 11:34:10;;;;;;;7.97;3.25;;;8.20;92.40;;;;;;4993266;28;20038;-51
2021/12/12 11:37:10;;;;;;;3.58;2.17;;;8.20;92.40;;;;;;4986816;28;20514;-51
2021/12/12 11:39:47;;;;;;;3.72;2.10;;;8.20;91.90;;;;;;4989277;28;20068;-51
2021/12/12 11:42:27;;;;;;;7.07;2.70;;;8.20;91.40;;;;;;4992085;28;20037;-50
2021/12/12 11:45:10;;;;;;;0.80;0.70;;;8.20;90.90;;;;;;4985912;28;20054;-51
2021/12/12 11:47:59;;;;;;;5.72;2.28;;;8.10;91.10;;;;;;4987957;28;20170;-51
2021/12/12 11:50:46;;;;;;;3.80;2.22;;;8.20;91.00;;;;;;4981023;28;20367;-50
2021/12/12 11:53:30;;;;;;;1.00;0.90;;;8.10;91.20;;;;;;4993228;28;20042;-51
2021/12/12 11:56:03;;;;;;;3.15;2.15;;;8.20;91.10;;;;;;4983785;28;20022;-51
2021/12/12 11:58:34;;;;;;;2.45;1.60;;;8.20;91.30;;;;;;4984199;28;20088;-51
2021/12/12 12:01:24;;;;;;;1.52;1.42;;;8.20;91.40;;;;;;5025263;28;20033;-51
2021/12/12 12:04:11;;;;;;;4.78;2.33;;;8.20;91.10;;;;;;5031772;28;20350;-51
2021/12/12 12:06:58;;;;;;;2.22;1.65;;;8.20;90.80;;;;;;5033930;28;20344;-51
2021/12/12 12:09:53;;;;;;;3.63;2.80;;;8.10;90.80;;;;;;5030316;28;20061;-50
2021/12/12 12:12:43;;;;;;;5.20;1.77;;;8.10;90.40;;;;;;5034791;28;20044;-51
2021/12/12 12:15:21;;;;;;;;;;;8.10;90.40;;;;;;5033382;28;20394;-51
2021/12/12 12:18:24;;;;;;;5.97;3.10;;;8.10;90.90;;;;;;5038960;28;19909;-50
2021/12/12 12:21:00;;;;;;;4.07;2.17;;;8.10;90.20;;;;;;5031828;28;20025;-51
2021/12/12 12:23:54;;;;;;;4.68;2.80;;;8.10;90.60;;;;;;5038049;28;20025;-51
2021/12/12 12:29:27;;;;;;;7.07;3.30;;;8.20;90.70;;;;;;5041443;28;20055;-51
2021/12/12 12:32:31;;;;;;;6.55;3.13;;;8.10;90.50;;;;;;5033704;28;20037;-51
2021/12/12 12:35:33;;;;;;;7.85;3.17;;;8.10;90.60;;;;;;5034352;28;20112;-51
2021/12/12 12:38:18;;;;;;;6.45;3.08;;;8.10;90.50;;;;;;5042923;28;20108;-51
2021/12/12 12:41:17;;;;;;;8.32;2.67;;;8.10;90.20;;;;;;5033044;28;20432;-51
2021/12/12 12:44:13;;;;;;;3.25;1.60;;;8.10;90.00;;;;;;5042934;28;20030;-51
2021/12/12 12:47:10;;;;;;;4.05;2.92;;;8.10;90.00;;;;;;5033647;28;20040;-51
2021/12/12 12:50:13;;;;;;;6.00;3.42;;;8.10;89.80;;;;;;5034072;28;20025;-51
2021/12/12 12:52:59;;;;;;;7.35;3.10;;;8.10;89.40;;;;;;5037906;28;20029;-51
2021/12/12 12:55:30;;;;;;;12.27;2.75;;;8.00;89.70;;;;;;5034352;28;20473;-51
2021/12/12 12:58:15;;;;;;;6.43;3.47;;;8.10;89.10;;;;;;5026920;28;20029;-51
2021/12/12 13:00:43;;;;;;;6.15;2.85;;;8.00;89.50;;;;;;5032908;28;20470;-50
2021/12/12 13:03:11;;;;;;;6.60;2.55;;;8.00;89.10;;;;;;5044750;28;20310;-50
2021/12/12 13:05:53;;;;;;;4.18;2.22;;;8.00;88.90;;;;;;5035473;28;20037;-51
2021/12/12 13:08:49;;;;;;;5.13;2.22;;;8.00;88.60;;;;;;5038276;28;20402;-51
2021/12/12 13:11:52;;;;;;;10.30;3.53;;;8.00;88.50;;;;;;5031403;28;20045;-50
2021/12/12 13:14:44;;;;;;;4.45;2.60;;;8.00;89.10;;;;;;5027805;28;20117;-50
2021/12/12 13:17:21;;;;;;;4.57;2.50;;;8.00;89.20;;;;;;5027094;28;20385;-51
2021/12/12 13:19:55;;;;;;;2.63;2.13;;;8.00;88.90;;;;;;5031379;28;20021;-51
2021/12/12 13:22:46;;;;;;;3.83;2.67;;;8.00;88.90;;;;;;5031421;28;20121;-51
2021/12/12 13:25:22;;;;;;;3.88;2.10;;;7.90;88.20;;;;;;5029233;28;20036;-51
2021/12/12 13:28:09;;;;;;;0.47;0.47;;;8.00;88.80;;;;;;5030174;28;20048;-51
2021/12/12 13:30:42;;;;;;;5.60;2.75;;;7.90;88.50;;;;;;5025394;28;20577;-51
2021/12/12 13:33:23;;;;;;;7.07;3.15;;;7.90;88.70;;;;;;5032388;28;20457;-50
2021/12/12 13:36:25;;;;;;;6.03;2.67;;;7.90;88.30;;;;;;5037405;28;20070;-51
2021/12/12 13:39:24;;;;;;;3.45;2.38;;;7.90;88.60;;;;;;5036246;28;20389;-50
2021/12/12 13:42:00;;;;;;;6.85;1.58;;;7.90;88.70;;;;;;5032791;28;20029;-51
2021/12/12 13:44:44;;;;;;;5.00;3.03;;;7.90;88.00;;;;;;5035439;28;20037;-50
2021/12/12 13:47:37;;;;;;;6.00;3.25;;;7.90;88.30;;;;;;5025383;28;20025;-50
2021/12/12 13:50:06;;;;;;;3.55;1.58;;;7.90;88.60;;;;;;5027502;28;20375;-50
2021/12/12 13:52:49;;;;;;;5.45;2.97;;;7.90;88.20;;;;;;5031422;28;20028;-51
2021/12/12 13:55:20;;;;;;;5.88;2.85;;;7.80;88.30;;;;;;5037035;28;20038;-51
2021/12/12 13:57:57;;;;;;;6.70;3.05;;;7.80;88.30;;;;;;5032200;28;20036;-50
2021/12/12 14:00:28;;;;;;;4.38;2.42;;;7.80;88.20;;;;;;5029016;28;20444;-51